Time;durP1;ratioP1;P1;durP2;ratioP2;P2;SDS_P1;SDS_P2;PMS_P1;PMS_P2;Temp;Humidity;BMP_temperature;BMP_pressure;BME280_temperature;BME280_humidity;BME280_pressure;Samples;Min_cycle;Max_cycle;Signal;HPM_P1;HPM_P2
2022/12/20 00:01:59;;;;;;;6.78;2.70;;;7.60;99.90;;;;;;7409091;19;19927;-65
2022/12/20 00:04:28;;;;;;;7.82;2.72;;;7.70;99.90;;;;;;7404356;19;19915;-65
2022/12/20 00:06:57;;;;;;;7.57;2.88;;;7.70;99.90;;;;;;7405417;19;19935;-65
2022/12/20 00:09:30;;;;;;;6.03;2.58;;;7.70;99.90;;;;;;7405509;19;20357;-65
2022/12/20 00:11:59;;;;;;;5.32;2.83;;;7.70;99.90;;;;;;7405701;19;19918;-65
2022/12/20 00:14:28;;;;;;;6.65;3.00;;;7.50;99.90;;;;;;7406339;19;19921;-65
2022/12/20 00:16:57;;;;;;;7.78;3.00;;;7.60;99.90;;;;;;7406510;19;19925;-64
2022/12/20 00:19:26;;;;;;;4.43;3.05;;;7.60;99.90;;;;;;7405311;19;19922;-64
2022/12/20 00:21:56;;;;;;;4.47;2.50;;;8.20;99.90;;;;;;7405485;19;19974;-65
2022/12/20 00:24:28;;;;;;;5.10;2.55;;;7.50;99.90;;;;;;7403093;19;19915;-64
2022/12/20 00:26:57;;;;;;;9.38;3.58;;;7.40;99.90;;;;;;7405252;19;19915;-64
2022/12/20 00:29:26;;;;;;;5.75;2.60;;;7.60;99.90;;;;;;7405138;19;19910;-64
2022/12/20 00:31:55;;;;;;;6.18;2.55;;;8.20;99.90;;;;;;7406351;19;19917;-64
2022/12/20 00:34:24;;;;;;;5.45;2.55;;;7.60;99.90;;;;;;7404699;19;20331;-65
2022/12/20 00:36:54;;;;;;;5.80;2.85;;;7.60;99.90;;;;;;7403920;19;19918;-65
2022/12/20 00:39:24;;;;;;;5.70;2.63;;;7.50;99.90;;;;;;7405034;19;19935;-65
2022/12/20 00:41:55;;;;;;;5.20;2.78;;;8.50;99.90;;;;;;7405038;19;20584;-64
2022/12/20 00:44:24;;;;;;;4.53;2.45;;;7.60;99.90;;;;;;7402899;19;19918;-64
2022/12/20 00:46:53;;;;;;;5.43;2.45;;;7.60;99.90;;;;;;7404248;19;19922;-64
2022/12/20 00:49:22;;;;;;;3.95;2.70;;;7.60;99.90;;;;;;7407679;19;19978;-64
2022/12/20 00:51:51;;;;;;;6.30;3.00;;;7.70;99.90;;;;;;7403723;19;19910;-64
2022/12/20 00:54:20;;;;;;;2.78;2.22;;;7.70;99.90;;;;;;7406154;19;19986;-64
2022/12/20 00:56:49;;;;;;;4.40;2.58;;;7.70;99.90;;;;;;7406373;19;19927;-65
2022/12/20 00:59:22;;;;;;;4.25;2.28;;;7.60;99.90;;;;;;7405139;19;20287;-65
2022/12/20 01:01:51;;;;;;;4.45;2.45;;;7.70;99.90;;;;;;7405368;19;19926;-65
2022/12/20 01:04:20;;;;;;;7.32;3.03;;;7.80;99.90;;;;;;7403483;19;19914;-65
2022/12/20 01:06:49;;;;;;;6.43;2.65;;;7.90;99.90;;;;;;7405873;19;19922;-65
2022/12/20 01:09:18;;;;;;;4.38;2.65;;;7.60;99.90;;;;;;7407936;19;19926;-64
2022/12/20 01:11:47;;;;;;;5.05;2.72;;;6.20;99.90;;;;;;7404415;19;19990;-65
2022/12/20 01:14:18;;;;;;;5.72;2.33;;;7.90;99.90;;;;;;7405177;19;19918;-65
2022/12/20 01:16:50;;;;;;;3.78;2.38;;;7.90;99.90;;;;;;7405996;19;19926;-65
2022/12/20 01:19:20;;;;;;;3.90;2.53;;;7.90;99.90;;;;;;7408005;19;20289;-65
2022/12/20 01:21:49;;;;;;;3.30;2.25;;;7.90;99.90;;;;;;7405997;19;19942;-65
2022/12/20 01:24:19;;;;;;;4.25;2.30;;;7.80;99.90;;;;;;7403759;19;19922;-65
2022/12/20 01:26:49;;;;;;;4.43;2.22;;;7.90;99.90;;;;;;7407225;19;19922;-65
2022/12/20 01:29:18;;;;;;;4.18;2.00;;;8.20;99.90;;;;;;7401841;19;20003;-65
2022/12/20 01:31:52;;;;;;;7.88;1.95;;;8.00;99.90;;;;;;7403999;19;19930;-65
2022/12/20 01:34:21;;;;;;;3.78;3.03;;;8.00;99.90;;;;;;7405310;19;19922;-65
2022/12/20 01:36:51;;;;;;;3.97;2.20;;;7.90;99.90;;;;;;7403084;19;19919;-65
2022/12/20 01:39:20;;;;;;;4.28;2.13;;;8.00;99.90;;;;;;7406092;19;19922;-65
2022/12/20 01:41:51;;;;;;;7.65;2.33;;;7.90;99.90;;;;;;7405306;19;19922;-65
2022/12/20 01:44:50;;;;;;;5.80;2.40;;;8.00;99.90;;;;;;7400993;19;19926;-65
2022/12/20 01:47:21;;;;;;;4.38;2.20;;;8.10;99.90;;;;;;7406066;19;20280;-65
2022/12/20 01:49:54;;;;;;;3.88;2.00;;;8.10;99.90;;;;;;7403256;19;19935;-65
2022/12/20 01:52:29;;;;;;;4.53;2.28;;;8.00;99.90;;;;;;7406372;19;19922;-65
2022/12/20 01:55:08;;;;;;;3.33;2.13;;;7.90;99.90;;;;;;7402723;19;20332;-65
2022/12/20 01:57:44;;;;;;;5.13;2.38;;;7.90;99.90;;;;;;7405622;19;19926;-65
2022/12/20 02:00:14;;;;;;;3.30;2.30;;;7.90;99.90;;;;;;7402290;19;19918;-65
2022/12/20 02:02:48;;;;;;;4.70;2.92;;;7.90;99.90;;;;;;7401963;19;20348;-65
2022/12/20 02:05:19;;;;;;;3.03;2.00;;;7.90;99.90;;;;;;7400357;19;20079;-65
2022/12/20 02:07:52;;;;;;;3.60;1.98;;;7.90;99.90;;;;;;7401119;19;19937;-65
2022/12/20 02:10:25;;;;;;;3.47;2.10;;;7.90;99.90;;;;;;7406545;19;19939;-65
2022/12/20 02:13:00;;;;;;;6.80;2.70;;;8.00;99.90;;;;;;7402057;19;20330;-64
2022/12/20 02:15:42;;;;;;;5.57;2.38;;;7.80;99.90;;;;;;7406492;19;19918;-64
2022/12/20 02:18:23;;;;;;;5.00;2.20;;;8.00;99.90;;;;;;7408613;19;20286;-65
2022/12/20 02:21:15;;;;;;;3.83;1.90;;;7.90;99.90;;;;;;7408832;19;19922;-65
2022/12/20 02:24:12;;;;;;;3.95;2.20;;;8.00;99.90;;;;;;7407618;19;20247;-64
2022/12/20 02:27:13;;;;;;;3.88;1.95;;;8.00;99.90;;;;;;7408418;19;19955;-64
2022/12/20 02:30:00;;;;;;;3.25;2.10;;;8.00;99.90;;;;;;7408617;19;19922;-64
2022/12/20 02:32:39;;;;;;;3.20;2.13;;;8.00;99.90;;;;;;7408213;19;19910;-65
2022/12/20 02:35:11;;;;;;;4.18;2.20;;;8.00;99.90;;;;;;7408042;19;19926;-64
2022/12/20 02:37:49;;;;;;;3.85;2.05;;;8.00;99.90;;;;;;7405215;19;19955;-63
2022/12/20 02:40:23;;;;;;;5.30;2.80;;;8.10;99.90;;;;;;7408529;19;19934;-64
2022/12/20 02:42:56;;;;;;;4.95;2.38;;;8.00;99.90;;;;;;7407987;19;19919;-64
2022/12/20 02:45:27;;;;;;;4.30;1.88;;;8.00;99.90;;;;;;7406471;19;19910;-64
2022/12/20 02:48:03;;;;;;;4.65;2.35;;;8.10;99.90;;;;;;7409883;19;19922;-64
2022/12/20 02:50:36;;;;;;;2.95;2.20;;;8.10;99.90;;;;;;7408252;19;19918;-64
2022/12/20 02:53:08;;;;;;;2.53;2.03;;;8.10;99.90;;;;;;7407379;19;19974;-64
2022/12/20 02:55:43;;;;;;;3.72;2.28;;;8.10;99.90;;;;;;7407544;19;20336;-64
2022/12/20 02:58:19;;;;;;;4.35;2.35;;;8.10;99.90;;;;;;7407934;19;19986;-64
2022/12/20 03:00:51;;;;;;;3.40;1.98;;;8.10;99.90;;;;;;7407501;19;20324;-65
2022/12/20 03:03:26;;;;;;;3.13;2.13;;;8.10;99.90;;;;;;7406682;19;20286;-65
2022/12/20 03:05:57;;;;;;;3.55;2.08;;;8.20;99.90;;;;;;7408224;19;19934;-65
2022/12/20 03:08:27;;;;;;;3.58;1.92;;;8.20;99.90;;;;;;7407509;19;19918;-64
2022/12/20 03:10:59;;;;;;;3.70;1.80;;;8.20;99.90;;;;;;7407270;19;19935;-65
2022/12/20 03:13:28;;;;;;;3.72;1.95;;;8.10;99.90;;;;;;7409816;19;19917;-65
2022/12/20 03:15:58;;;;;;;2.17;1.55;;;8.20;99.90;;;;;;7407022;19;19926;-65
2022/12/20 03:18:30;;;;;;;3.35;2.03;;;8.10;99.90;;;;;;7406687;19;19910;-65
2022/12/20 03:21:01;;;;;;;4.55;1.85;;;8.30;99.90;;;;;;7406722;19;20346;-65
2022/12/20 03:23:31;;;;;;;3.58;2.20;;;8.10;99.90;;;;;;7406787;19;19921;-65
2022/12/20 03:25:59;;;;;;;2.58;1.95;;;8.00;99.90;;;;;;7406749;19;19911;-65
2022/12/20 03:28:28;;;;;;;5.88;2.10;;;8.10;99.90;;;;;;7406127;19;19918;-65
2022/12/20 03:30:58;;;;;;;5.90;2.20;;;8.10;99.90;;;;;;7406792;19;19914;-66
2022/12/20 03:33:29;;;;;;;5.78;2.35;;;8.00;99.90;;;;;;7409455;19;19922;-65
2022/12/20 03:35:58;;;;;;;3.60;2.05;;;8.00;99.90;;;;;;7405887;19;19918;-65
2022/12/20 03:38:27;;;;;;;2.70;1.90;;;8.00;99.90;;;;;;7405762;19;19918;-69
2022/12/20 03:40:56;;;;;;;5.38;2.10;;;7.90;99.90;;;;;;7406209;19;19918;-65
2022/12/20 03:43:26;;;;;;;5.15;2.40;;;8.00;99.90;;;;;;7406534;19;20201;-66
2022/12/20 03:45:55;;;;;;;3.90;2.22;;;7.80;99.90;;;;;;7405888;19;19946;-65
2022/12/20 03:48:24;;;;;;;2.60;2.05;;;7.80;99.90;;;;;;7406890;19;19922;-65
2022/12/20 03:50:55;;;;;;;4.78;2.13;;;7.90;99.90;;;;;;7406461;19;19962;-65
2022/12/20 03:53:24;;;;;;;3.90;2.03;;;7.80;99.90;;;;;;7405934;19;19932;-65
2022/12/20 03:55:53;;;;;;;3.28;1.95;;;7.70;99.90;;;;;;7406735;19;20534;-65
2022/12/20 03:58:22;;;;;;;4.18;2.13;;;7.80;99.90;;;;;;7407419;19;20553;-65
2022/12/20 04:00:52;;;;;;;9.27;2.63;;;7.80;99.90;;;;;;7407636;19;19922;-65
2022/12/20 04:03:21;;;;;;;2.92;2.15;;;7.70;99.90;;;;;;7409778;19;19943;-64
2022/12/20 04:05:50;;;;;;;3.58;2.25;;;7.60;99.90;;;;;;7407027;19;19918;-64
2022/12/20 04:08:21;;;;;;;3.67;2.40;;;7.70;99.90;;;;;;7406490;19;19930;-64
2022/12/20 04:13:37;;;;;;;4.35;2.33;;;7.70;99.90;;;;;;7407786;19;19907;-64
2022/12/20 04:16:08;;;;;;;4.35;2.80;;;7.50;99.90;;;;;;7405712;19;19942;-64
2022/12/20 04:18:37;;;;;;;7.00;2.40;;;7.80;99.90;;;;;;7405414;19;19946;-64
2022/12/20 04:21:07;;;;;;;4.47;2.47;;;7.70;99.90;;;;;;7405298;19;19918;-65
2022/12/20 04:23:40;;;;;;;4.10;2.22;;;7.60;99.90;;;;;;7409143;19;19919;-65
2022/12/20 04:26:12;;;;;;;5.38;2.17;;;7.60;99.90;;;;;;7403032;19;19914;-65
2022/12/20 04:28:41;;;;;;;;;;;7.80;99.90;;;;;;7407805;19;19960;-65
2022/12/20 04:31:14;;;;;;;6.50;2.38;;;7.80;99.90;;;;;;7409804;19;20329;-65
2022/12/20 04:33:43;;;;;;;3.55;2.20;;;7.70;99.90;;;;;;7404181;19;19915;-64
2022/12/20 04:36:12;;;;;;;4.65;2.00;;;7.80;99.90;;;;;;7404408;19;19943;-64
2022/12/20 04:38:44;;;;;;;5.75;2.60;;;8.30;99.90;;;;;;7402630;19;19918;-64
2022/12/20 04:41:21;;;;;;;3.78;1.80;;;7.80;99.90;;;;;;7404819;19;19922;-64
2022/12/20 04:43:51;;;;;;;2.53;2.25;;;7.90;99.90;;;;;;7404253;19;19934;-65
2022/12/20 04:46:20;;;;;;;2.78;1.77;;;7.90;99.90;;;;;;7404973;19;20340;-64
2022/12/20 04:48:50;;;;;;;4.30;2.03;;;7.80;99.90;;;;;;7402486;19;20265;-64
2022/12/20 04:51:19;;;;;;;4.05;2.78;;;7.90;99.90;;;;;;7404311;19;19919;-65
2022/12/20 04:53:48;;;;;;;3.42;2.38;;;7.80;99.90;;;;;;7398443;19;20031;-64
2022/12/20 04:56:22;;;;;;;3.67;2.20;;;7.90;99.90;;;;;;7404242;19;19915;-64
2022/12/20 04:58:55;;;;;;;3.83;1.95;;;7.90;99.90;;;;;;7405577;19;19918;-64
2022/12/20 05:01:24;;;;;;;3.72;2.05;;;7.90;99.90;;;;;;7403698;19;19925;-65
2022/12/20 05:03:53;;;;;;;3.22;2.15;;;7.90;99.90;;;;;;7402834;19;20031;-64
2022/12/20 05:06:22;;;;;;;3.72;2.30;;;7.80;99.90;;;;;;7402405;19;19918;-65
2022/12/20 05:08:54;;;;;;;2.38;1.85;;;8.10;99.90;;;;;;7404822;19;19935;-64
2022/12/20 05:11:23;;;;;;;5.13;2.45;;;9.20;99.90;;;;;;7406625;19;19927;-64
2022/12/20 05:13:52;;;;;;;3.83;2.13;;;8.20;99.90;;;;;;7404105;19;19911;-64
2022/12/20 05:16:22;;;;;;;2.85;1.90;;;8.10;99.90;;;;;;7403245;19;19981;-64
2022/12/20 05:18:51;;;;;;;5.05;2.20;;;7.90;99.90;;;;;;7403902;19;20251;-64
2022/12/20 05:26:53;;;;;;;4.93;2.10;;;8.00;99.90;;;;;;7403050;19;20274;-64
2022/12/20 05:29:22;;;;;;;4.90;2.38;;;8.00;99.90;;;;;;7403465;19;20233;-64
2022/12/20 05:31:51;;;;;;;7.20;2.40;;;8.00;99.90;;;;;;7403232;19;19919;-64
2022/12/20 05:34:20;;;;;;;3.53;2.17;;;8.10;99.90;;;;;;7399804;19;19925;-64
2022/12/20 05:37:09;;;;;;;3.08;2.22;;;8.00;99.90;;;;;;7401083;19;20343;-64
2022/12/20 05:40:00;;;;;;;3.28;2.10;;;8.70;99.90;;;;;;7400581;19;20255;-64
2022/12/20 05:42:49;;;;;;;3.30;2.60;;;9.30;99.90;;;;;;7404125;19;20352;-64
2022/12/20 05:45:38;;;;;;;3.50;2.25;;;8.60;99.90;;;;;;7400056;19;19914;-64
2022/12/20 05:48:07;;;;;;;4.05;1.98;;;8.30;99.90;;;;;;7404276;19;20271;-64
2022/12/20 05:50:36;;;;;;;4.72;1.95;;;8.20;99.90;;;;;;7400135;19;19914;-64
2022/12/20 05:53:05;;;;;;;4.75;2.33;;;8.20;99.90;;;;;;7402735;19;19938;-64
2022/12/20 05:55:39;;;;;;;3.28;2.08;;;8.20;99.90;;;;;;7400151;19;19919;-64
2022/12/20 05:58:12;;;;;;;3.17;2.22;;;8.40;99.90;;;;;;7404947;19;20319;-64
2022/12/20 06:00:42;;;;;;;4.10;2.13;;;8.70;99.90;;;;;;7402402;19;19918;-65
2022/12/20 06:03:13;;;;;;;3.20;2.17;;;8.30;99.90;;;;;;7401556;19;19914;-64
2022/12/20 06:05:43;;;;;;;5.28;1.88;;;8.50;99.90;;;;;;7398636;19;20022;-66
2022/12/20 06:08:13;;;;;;;4.07;2.40;;;8.50;99.90;;;;;;7405764;19;20026;-65
2022/12/20 06:10:50;;;;;;;5.65;2.15;;;8.50;99.90;;;;;;7401726;19;20401;-65
2022/12/20 06:13:22;;;;;;;3.15;2.10;;;8.50;99.90;;;;;;7403245;19;19918;-65
2022/12/20 06:15:52;;;;;;;2.85;2.22;;;8.60;99.90;;;;;;7400633;19;19929;-64
2022/12/20 06:18:22;;;;;;;3.13;1.95;;;8.60;99.90;;;;;;7404850;19;19918;-65
2022/12/20 06:20:52;;;;;;;3.08;1.90;;;8.50;99.90;;;;;;7404505;19;19915;-64
2022/12/20 06:23:22;;;;;;;6.03;1.95;;;8.70;99.90;;;;;;7403502;19;19922;-65
2022/12/20 06:25:54;;;;;;;3.10;1.90;;;8.60;99.90;;;;;;7404382;19;19926;-64
2022/12/20 06:28:23;;;;;;;3.08;1.75;;;8.60;99.90;;;;;;7402022;19;20770;-64
2022/12/20 06:30:55;;;;;;;5.25;2.10;;;8.80;99.90;;;;;;7401405;19;19907;-64
2022/12/20 06:33:24;;;;;;;3.17;2.17;;;8.70;99.90;;;;;;7401348;19;19944;-62
2022/12/20 06:35:53;;;;;;;3.38;1.67;;;8.60;99.90;;;;;;7400804;19;19926;-64
2022/12/20 06:38:22;;;;;;;3.13;1.80;;;8.70;99.90;;;;;;7401107;19;19932;-64
2022/12/20 06:40:54;;;;;;;4.68;2.00;;;8.70;99.90;;;;;;7401994;19;20321;-64
2022/12/20 06:43:23;;;;;;;2.78;1.75;;;8.70;99.90;;;;;;7404711;19;20241;-64
2022/12/20 06:45:52;;;;;;;3.88;2.03;;;8.70;99.90;;;;;;7400999;19;19913;-64
2022/12/20 06:48:22;;;;;;;6.30;2.10;;;8.70;99.90;;;;;;7401190;19;19986;-63
2022/12/20 06:50:51;;;;;;;4.35;1.70;;;8.70;99.90;;;;;;7394977;19;20562;-64
2022/12/20 06:53:20;;;;;;;3.08;1.75;;;8.90;99.90;;;;;;7400089;19;19915;-64
2022/12/20 06:55:58;;;;;;;5.28;2.15;;;8.80;99.90;;;;;;7401611;19;19918;-64
2022/12/20 06:58:27;;;;;;;2.88;1.95;;;8.70;99.90;;;;;;7400715;19;19918;-64
2022/12/20 07:00:56;;;;;;;3.58;1.50;;;8.80;99.90;;;;;;7400259;19;19918;-65
2022/12/20 07:03:28;;;;;;;3.05;1.95;;;8.80;99.90;;;;;;7403847;19;20018;-64
2022/12/20 07:05:57;;;;;;;4.38;1.77;;;8.80;99.90;;;;;;7402243;19;19981;-64
2022/12/20 07:08:27;;;;;;;3.97;1.85;;;8.80;99.90;;;;;;7411184;19;19918;-63
2022/12/20 07:11:04;;;;;;;4.47;2.53;;;8.90;99.90;;;;;;7405681;19;19929;-64
2022/12/20 07:13:33;;;;;;;5.25;1.90;;;8.80;99.90;;;;;;7410663;19;19919;-64
2022/12/20 07:16:03;;;;;;;3.38;2.00;;;8.80;99.90;;;;;;7405763;19;19915;-64
2022/12/20 07:18:34;;;;;;;6.07;2.80;;;8.80;99.90;;;;;;7408946;19;20385;-65
2022/12/20 07:21:05;;;;;;;4.78;2.60;;;8.50;99.90;;;;;;7406063;19;20336;-64
2022/12/20 07:23:34;;;;;;;3.72;2.08;;;8.60;99.90;;;;;;7410605;19;19974;-64
2022/12/20 07:26:05;;;;;;;3.97;2.33;;;8.40;99.90;;;;;;7404308;19;20411;-63
2022/12/20 07:28:34;;;;;;;3.95;2.45;;;8.40;99.90;;;;;;7404404;19;20347;-63
2022/12/20 07:31:04;;;;;;;4.20;2.30;;;8.40;99.90;;;;;;7405852;19;19914;-64
2022/12/20 07:33:34;;;;;;;4.07;2.65;;;8.30;99.90;;;;;;7406141;19;19918;-64
2022/12/20 07:36:04;;;;;;;6.78;2.53;;;8.40;99.90;;;;;;7399338;19;19951;-64
2022/12/20 07:38:38;;;;;;;5.03;2.60;;;9.10;99.90;;;;;;7405564;19;19956;-64
2022/12/20 07:41:13;;;;;;;5.45;2.72;;;8.40;99.90;;;;;;7402958;19;20022;-64
2022/12/20 07:43:57;;;;;;;6.32;2.75;;;8.20;99.90;;;;;;7406550;19;19926;-65
2022/12/20 07:46:26;;;;;;;3.70;2.58;;;8.30;99.90;;;;;;7406905;19;19923;-64
2022/12/20 07:49:32;;;;;;;3.75;2.88;;;8.30;99.90;;;;;;7407393;19;20349;-64
2022/12/20 07:52:06;;;;;;;5.85;2.83;;;8.30;99.90;;;;;;7406017;19;19932;-64
2022/12/20 07:54:39;;;;;;;4.25;2.70;;;8.30;99.90;;;;;;7405613;19;20212;-64
2022/12/20 07:57:15;;;;;;;8.98;2.65;;;8.30;99.90;;;;;;7405511;19;19930;-68
2022/12/20 07:59:48;;;;;;;5.13;2.90;;;8.30;99.90;;;;;;7405891;19;20272;-64
2022/12/20 08:02:22;;;;;;;3.83;2.75;;;8.30;99.90;;;;;;7404869;19;20304;-64
2022/12/20 08:04:52;;;;;;;4.32;2.47;;;8.30;99.90;;;;;;7404765;19;19974;-64
2022/12/20 08:07:22;;;;;;;6.70;2.70;;;8.30;99.90;;;;;;7403825;19;19922;-64
2022/12/20 08:09:51;;;;;;;6.10;2.67;;;8.20;99.90;;;;;;7404747;19;20344;-64
2022/12/20 08:12:23;;;;;;;5.82;2.97;;;8.40;99.90;;;;;;7409461;19;19978;-64
2022/12/20 08:14:55;;;;;;;5.35;2.88;;;8.20;99.90;;;;;;7405203;19;19945;-64
2022/12/20 08:17:24;;;;;;;4.07;2.60;;;8.30;99.90;;;;;;7403431;19;19935;-64
2022/12/20 08:19:53;;;;;;;6.05;2.85;;;8.20;99.90;;;;;;7405371;19;20483;-64
2022/12/20 08:22:23;;;;;;;3.92;2.75;;;9.40;99.90;;;;;;7405263;19;19911;-63
2022/12/20 08:24:56;;;;;;;6.55;2.65;;;8.30;99.90;;;;;;7403850;19;19925;-65
2022/12/20 08:27:28;;;;;;;8.35;3.47;;;8.40;99.90;;;;;;7407143;19;19932;-64
2022/12/20 08:29:57;;;;;;;6.43;3.28;;;8.30;99.90;;;;;;7408407;19;20318;-64
2022/12/20 08:32:26;;;;;;;7.63;3.13;;;8.30;99.90;;;;;;7406812;19;19914;-64
2022/12/20 08:34:57;;;;;;;5.88;2.95;;;8.40;99.90;;;;;;7405250;19;19943;-64
2022/12/20 08:37:31;;;;;;;8.75;3.10;;;8.40;99.90;;;;;;7405756;19;20291;-63
2022/12/20 08:40:00;;;;;;;4.38;2.85;;;8.40;99.90;;;;;;7405789;19;19986;-64
2022/12/20 08:42:31;;;;;;;5.57;2.55;;;8.40;99.90;;;;;;7405353;19;19919;-63
2022/12/20 08:45:00;;;;;;;4.03;2.80;;;8.30;99.90;;;;;;7405458;19;19926;-64
2022/12/20 08:47:31;;;;;;;7.20;2.83;;;8.50;99.90;;;;;;7406146;19;20042;-64
2022/12/20 08:50:00;;;;;;;4.03;2.60;;;8.50;99.90;;;;;;7404803;19;20017;-64
2022/12/20 08:52:30;;;;;;;6.55;2.35;;;8.80;99.90;;;;;;7404010;19;19915;-64
2022/12/20 08:54:59;;;;;;;3.42;2.65;;;8.50;99.90;;;;;;7406540;19;20257;-64
2022/12/20 08:57:31;;;;;;;3.30;1.90;;;8.70;99.90;;;;;;7406127;19;19974;-63
2022/12/20 09:00:00;;;;;;;3.58;2.65;;;8.60;99.90;;;;;;7403818;19;20314;-63
2022/12/20 09:02:29;;;;;;;4.15;2.45;;;8.60;99.90;;;;;;7403687;19;20346;-64
2022/12/20 09:04:58;;;;;;;3.42;2.30;;;8.70;99.90;;;;;;7406701;19;19991;-63
2022/12/20 09:07:27;;;;;;;4.38;2.60;;;8.70;99.90;;;;;;7402481;19;19918;-63
2022/12/20 09:10:16;;;;;;;5.35;2.05;;;8.60;99.90;;;;;;7402748;19;19926;-64
2022/12/20 09:12:48;;;;;;;2.75;2.00;;;8.70;99.90;;;;;;7404943;19;19926;-64
2022/12/20 09:15:17;;;;;;;4.05;2.20;;;8.70;99.90;;;;;;7403829;19;19994;-64
2022/12/20 09:17:56;;;;;;;6.40;2.25;;;8.80;99.90;;;;;;7406453;19;19914;-64
2022/12/20 09:20:34;;;;;;;3.35;2.05;;;8.90;99.90;;;;;;7406644;19;19915;-64
2022/12/20 09:23:03;;;;;;;7.60;2.33;;;8.90;99.90;;;;;;7404776;19;19919;-63
2022/12/20 09:25:32;;;;;;;3.83;2.03;;;8.80;99.90;;;;;;7400417;19;20344;-64
2022/12/20 09:28:03;;;;;;;3.20;1.80;;;8.80;99.90;;;;;;7403054;19;19925;-64
2022/12/20 09:30:32;;;;;;;1.80;1.30;;;9.00;99.90;;;;;;7402890;19;19919;-64
2022/12/20 09:33:01;;;;;;;3.47;1.95;;;8.90;99.90;;;;;;7405759;19;19915;-64
2022/12/20 09:35:32;;;;;;;3.67;2.28;;;8.80;99.90;;;;;;7405022;19;20280;-64
2022/12/20 09:38:01;;;;;;;5.15;1.85;;;9.10;99.90;;;;;;7394589;19;20018;-64
2022/12/20 09:40:36;;;;;;;4.75;2.08;;;9.10;99.90;;;;;;7403567;19;19922;-65
2022/12/20 09:43:11;;;;;;;3.13;2.13;;;9.10;99.90;;;;;;7402957;19;19914;-64
2022/12/20 09:45:41;;;;;;;3.90;2.13;;;9.10;99.90;;;;;;7402220;19;19918;-64
2022/12/20 09:48:18;;;;;;;3.53;2.00;;;9.10;99.90;;;;;;7406319;19;19936;-64
2022/12/20 09:50:56;;;;;;;2.75;1.80;;;9.10;99.90;;;;;;7404002;19;19929;-65
2022/12/20 09:53:35;;;;;;;3.08;1.60;;;9.20;99.90;;;;;;7404877;19;19982;-65
2022/12/20 09:56:12;;;;;;;3.35;1.63;;;9.30;99.90;;;;;;7402744;19;19919;-64
2022/12/20 09:58:57;;;;;;;3.95;2.05;;;9.20;99.90;;;;;;7401509;19;19917;-65
2022/12/20 10:01:28;;;;;;;3.42;2.10;;;9.40;99.90;;;;;;7402551;19;19919;-64
2022/12/20 10:04:00;;;;;;;2.00;1.60;;;9.20;99.90;;;;;;7404186;19;19922;-64
2022/12/20 10:06:48;;;;;;;3.67;1.80;;;9.20;99.90;;;;;;7401957;19;19919;-63
2022/12/20 10:09:31;;;;;;;3.72;1.63;;;9.20;99.90;;;;;;7405674;19;19926;-64
2022/12/20 10:12:05;;;;;;;;;;;9.20;99.90;;;;;;7407997;19;19918;-64
2022/12/20 10:15:01;;;;;;;2.40;1.60;;;9.30;99.90;;;;;;7405271;19;19922;-65
2022/12/20 10:17:44;;;;;;;3.20;1.63;;;9.30;99.90;;;;;;7401719;19;19918;-64
2022/12/20 10:20:36;;;;;;;3.00;2.10;;;9.40;99.90;;;;;;7401393;19;19915;-65
2022/12/20 10:23:12;;;;;;;3.80;1.92;;;9.30;99.90;;;;;;7404691;19;19943;-64
2022/12/20 10:25:43;;;;;;;1.98;1.40;;;9.30;99.90;;;;;;7403370;19;19922;-64
2022/12/20 10:28:17;;;;;;;3.65;1.90;;;9.30;99.90;;;;;;7403984;19;19938;-65
2022/12/20 10:30:49;;;;;;;7.93;1.85;;;9.30;99.90;;;;;;7401307;19;19922;-64
2022/12/20 10:33:22;;;;;;;4.15;2.13;;;9.40;99.90;;;;;;7402206;19;19927;-65
2022/12/20 10:35:55;;;;;;;2.20;1.73;;;9.30;99.90;;;;;;7401030;19;19922;-64
2022/12/20 10:38:45;;;;;;;2.13;1.67;;;9.20;99.90;;;;;;7403619;19;19951;-64
2022/12/20 10:41:19;;;;;;;4.07;2.03;;;9.10;99.90;;;;;;7408587;19;19919;-65
2022/12/20 10:44:01;;;;;;;5.18;2.80;;;9.20;99.90;;;;;;7403196;19;20021;-64
2022/12/20 10:46:45;;;;;;;4.20;1.63;;;9.00;99.90;;;;;;7408807;19;19978;-64
2022/12/20 10:49:29;;;;;;;6.30;2.05;;;9.10;99.90;;;;;;7409368;19;19932;-64
2022/12/20 10:52:02;;;;;;;3.55;1.90;;;9.00;99.90;;;;;;7409615;19;19954;-65
2022/12/20 10:54:34;;;;;;;3.20;1.88;;;9.10;99.90;;;;;;7406277;19;20051;-64
2022/12/20 10:57:15;;;;;;;3.00;2.13;;;9.00;99.90;;;;;;7408224;19;19974;-64
2022/12/20 10:59:52;;;;;;;2.95;1.92;;;9.00;99.90;;;;;;7409180;19;19914;-64
2022/12/20 11:02:33;;;;;;;3.08;1.92;;;9.00;99.90;;;;;;7408639;19;19990;-63
2022/12/20 11:05:24;;;;;;;3.58;2.15;;;8.90;99.90;;;;;;7406939;19;19977;-63
2022/12/20 11:07:56;;;;;;;2.22;1.80;;;8.90;99.90;;;;;;7397979;19;19914;-64
2022/12/20 11:10:27;;;;;;;5.25;2.05;;;8.90;99.90;;;;;;7407612;19;19986;-63
2022/12/20 11:12:57;;;;;;;2.78;2.00;;;8.80;99.90;;;;;;7409647;19;19935;-63
2022/12/20 11:15:29;;;;;;;5.40;2.10;;;8.80;99.90;;;;;;7408772;19;19918;-63
2022/12/20 11:18:07;;;;;;;5.95;1.70;;;8.80;99.90;;;;;;7408815;19;19954;-64
2022/12/20 11:20:44;;;;;;;5.75;2.28;;;8.90;99.90;;;;;;7406639;19;20267;-64
2022/12/20 11:23:21;;;;;;;2.45;1.52;;;8.80;99.90;;;;;;7407411;19;20328;-64
2022/12/20 11:26:05;;;;;;;4.22;1.95;;;8.80;99.90;;;;;;7407855;19;19939;-63
2022/12/20 11:28:49;;;;;;;10.32;2.28;;;8.80;99.90;;;;;;7410423;19;19919;-64
2022/12/20 11:31:28;;;;;;;6.78;2.50;;;8.70;99.90;;;;;;7398419;19;20371;-64
2022/12/20 11:34:17;;;;;;;3.08;1.85;;;8.70;99.90;;;;;;7405826;19;19930;-64
2022/12/20 11:37:16;;;;;;;3.97;2.25;;;8.60;99.90;;;;;;7403985;19;19919;-64
2022/12/20 11:40:04;;;;;;;4.38;1.80;;;8.70;99.90;;;;;;7405530;19;19915;-64
2022/12/20 11:42:44;;;;;;;5.47;2.00;;;8.70;99.90;;;;;;7409481;19;19926;-64
2022/12/20 11:45:22;;;;;;;3.10;2.10;;;8.80;99.90;;;;;;7405526;19;20225;-64
2022/12/20 11:48:22;;;;;;;4.13;2.08;;;8.50;99.90;;;;;;7403623;19;19922;-64
2022/12/20 11:51:06;;;;;;;6.35;2.53;;;7.70;99.90;;;;;;7407665;19;19919;-64
2022/12/20 11:53:43;;;;;;;6.45;2.53;;;8.90;99.90;;;;;;7407457;19;20548;-64
2022/12/20 11:56:18;;;;;;;6.47;2.28;;;8.60;99.90;;;;;;7405712;19;19915;-64
2022/12/20 11:58:53;;;;;;;3.35;1.90;;;8.80;99.90;;;;;;7408807;19;19955;-64
2022/12/20 12:01:27;;;;;;;5.18;2.10;;;8.70;99.90;;;;;;7409559;19;19914;-63
2022/12/20 12:04:06;;;;;;;3.72;2.53;;;8.70;99.90;;;;;;7404964;19;20008;-63
2022/12/20 12:06:42;;;;;;;2.42;1.92;;;8.90;99.90;;;;;;7404857;19;19915;-63
2022/12/20 12:09:21;;;;;;;5.30;1.83;;;8.70;99.90;;;;;;7407686;19;19911;-63
2022/12/20 12:11:54;;;;;;;3.63;1.92;;;8.80;99.90;;;;;;7408372;19;20270;-63
2022/12/20 12:14:33;;;;;;;3.95;1.92;;;8.80;99.90;;;;;;7405394;19;19930;-63
2022/12/20 12:17:10;;;;;;;3.22;1.83;;;8.90;99.90;;;;;;7406199;19;19918;-63
2022/12/20 12:19:44;;;;;;;3.83;1.75;;;8.90;99.90;;;;;;7404920;19;19951;-65
2022/12/20 12:22:22;;;;;;;4.63;1.95;;;8.90;99.90;;;;;;7406764;19;20273;-64
2022/12/20 12:24:57;;;;;;;3.72;2.05;;;8.80;99.90;;;;;;7406162;19;20465;-64
2022/12/20 12:27:28;;;;;;;4.40;2.53;;;8.80;99.90;;;;;;6335401;19;15037031;-64
2022/12/20 12:30:02;;;;;;;4.75;1.90;;;8.80;99.90;;;;;;7403523;19;19933;-64
2022/12/20 12:32:36;;;;;;;3.78;2.13;;;8.90;99.90;;;;;;7403490;19;19931;-64
2022/12/20 12:35:20;;;;;;;2.55;2.08;;;8.90;99.90;;;;;;7406104;19;20308;-65
2022/12/20 12:38:05;;;;;;;2.63;1.75;;;8.80;99.90;;;;;;7403269;19;20380;-64
2022/12/20 12:40:59;;;;;;;2.88;1.77;;;8.80;99.90;;;;;;7404627;19;19923;-64
2022/12/20 12:43:50;;;;;;;1.95;1.60;;;8.80;99.90;;;;;;7403714;19;19922;-64
2022/12/20 12:46:24;;;;;;;4.75;2.17;;;8.80;99.90;;;;;;7403208;19;20489;-64
2022/12/20 12:48:59;;;;;;;2.50;1.60;;;8.90;99.90;;;;;;7403994;19;19982;-64
2022/12/20 12:51:33;;;;;;;4.53;2.10;;;8.90;99.90;;;;;;7405870;19;19988;-65
2022/12/20 12:54:26;;;;;;;2.83;1.73;;;8.90;99.90;;;;;;7406613;19;20447;-64
2022/12/20 12:57:02;;;;;;;4.47;1.67;;;8.90;99.90;;;;;;7406068;19;20260;-65
2022/12/20 12:59:52;;;;;;;4.20;1.70;;;8.90;99.90;;;;;;7404423;19;19919;-65
2022/12/20 13:02:28;;;;;;;2.47;1.98;;;8.90;99.90;;;;;;7404576;19;19920;-65
2022/12/20 13:05:00;;;;;;;3.33;2.30;;;8.80;99.90;;;;;;7406448;19;19929;-65
2022/12/20 13:07:42;;;;;;;4.00;2.05;;;9.00;99.90;;;;;;7404112;19;19957;-63
2022/12/20 13:10:41;;;;;;;3.65;1.83;;;8.80;99.90;;;;;;7405827;19;19958;-65
2022/12/20 13:13:24;;;;;;;4.13;2.10;;;8.80;99.90;;;;;;7404616;19;20350;-64
2022/12/20 13:16:22;;;;;;;6.28;2.92;;;8.80;99.90;;;;;;7404924;19;19930;-65
2022/12/20 13:19:14;;;;;;;2.42;2.00;;;8.70;99.90;;;;;;7400260;19;19922;-64
2022/12/20 13:21:45;;;;;;;2.85;1.85;;;8.80;99.90;;;;;;7403891;19;19927;-65
2022/12/20 13:24:53;;;;;;;5.10;2.40;;;8.80;99.90;;;;;;7405414;19;20479;-64
2022/12/20 13:27:31;;;;;;;3.22;2.20;;;8.70;99.90;;;;;;7402598;19;19919;-63
2022/12/20 13:30:29;;;;;;;5.28;2.47;;;8.70;99.90;;;;;;7405412;19;19925;-64
2022/12/20 13:33:24;;;;;;;3.20;2.22;;;8.70;99.90;;;;;;7404728;19;20344;-64
2022/12/20 13:36:32;;;;;;;3.58;2.33;;;8.70;99.90;;;;;;7401020;19;20367;-64
2022/12/20 13:39:38;;;;;;;4.80;2.50;;;8.60;99.90;;;;;;7401383;19;20014;-64
2022/12/20 13:42:38;;;;;;;3.47;2.33;;;8.60;99.90;;;;;;7401862;19;19930;-64
2022/12/20 13:45:15;;;;;;;3.08;2.17;;;8.60;99.90;;;;;;7403825;19;19918;-64